sensor_id;sensor_type;location;lat;lon;timestamp;temperature;humidity
18163;DHT22;9206;50.994;4.538;2023-04-06T00:00:03;4.80;99.90
18163;DHT22;9206;50.994;4.538;2023-04-06T00:02:57;4.90;99.90
18163;DHT22;9206;50.994;4.538;2023-04-06T00:08:57;5.00;99.90
18163;DHT22;9206;50.994;4.538;2023-04-06T00:11:48;5.00;99.90
18163;DHT22;9206;50.994;4.538;2023-04-06T00:14:44;5.10;99.90
18163;DHT22;9206;50.994;4.538;2023-04-06T00:17:34;5.10;99.90
18163;DHT22;9206;50.994;4.538;2023-04-06T00:20:23;5.10;99.90
18163;DHT22;9206;50.994;4.538;2023-04-06T00:26:32;5.20;99.90
18163;DHT22;9206;50.994;4.538;2023-04-06T00:29:21;5.20;99.90
18163;DHT22;9206;50.994;4.538;2023-04-06T00:32:19;5.20;99.90
18163;DHT22;9206;50.994;4.538;2023-04-06T00:38:15;5.10;99.90
18163;DHT22;9206;50.994;4.538;2023-04-06T00:41:03;5.10;99.90
18163;DHT22;9206;50.994;4.538;2023-04-06T00:47:49;5.00;99.90
18163;DHT22;9206;50.994;4.538;2023-04-06T00:50:47;5.00;99.90
18163;DHT22;9206;50.994;4.538;2023-04-06T00:53:47;4.90;99.90
18163;DHT22;9206;50.994;4.538;2023-04-06T00:59:37;4.90;99.90
18163;DHT22;9206;50.994;4.538;2023-04-06T01:08:18;4.80;99.90
18163;DHT22;9206;50.994;4.538;2023-04-06T01:11:08;4.80;99.90
18163;DHT22;9206;50.994;4.538;2023-04-06T01:14:02;4.80;99.90
18163;DHT22;9206;50.994;4.538;2023-04-06T01:17:04;4.90;99.90
18163;DHT22;9206;50.994;4.538;2023-04-06T01:26:15;5.00;99.90
18163;DHT22;9206;50.994;4.538;2023-04-06T01:32:39;5.20;99.90
18163;DHT22;9206;50.994;4.538;2023-04-06T01:35:30;5.20;99.90
18163;DHT22;9206;50.994;4.538;2023-04-06T01:38:18;5.20;99.90
18163;DHT22;9206;50.994;4.538;2023-04-06T01:41:19;5.30;99.90
18163;DHT22;9206;50.994;4.538;2023-04-06T01:44:07;5.40;99.90
18163;DHT22;9206;50.994;4.538;2023-04-06T01:46:55;5.40;99.90
18163;DHT22;9206;50.994;4.538;2023-04-06T01:49:52;5.40;99.90
18163;DHT22;9206;50.994;4.538;2023-04-06T01:53:24;5.50;99.90
18163;DHT22;9206;50.994;4.538;2023-04-06T01:56:12;5.60;99.90
18163;DHT22;9206;50.994;4.538;2023-04-06T01:59:03;5.60;99.90
18163;DHT22;9206;50.994;4.538;2023-04-06T02:01:57;5.60;99.90
18163;DHT22;9206;50.994;4.538;2023-04-06T02:05:18;5.70;99.90
18163;DHT22;9206;50.994;4.538;2023-04-06T02:08:48;5.70;99.90
18163;DHT22;9206;50.994;4.538;2023-04-06T02:11:42;5.70;99.90
18163;DHT22;9206;50.994;4.538;2023-04-06T02:14:50;5.80;99.90
18163;DHT22;9206;50.994;4.538;2023-04-06T02:21:41;5.90;99.90
18163;DHT22;9206;50.994;4.538;2023-04-06T02:24:28;5.80;99.90
18163;DHT22;9206;50.994;4.538;2023-04-06T02:27:23;5.80;99.90
18163;DHT22;9206;50.994;4.538;2023-04-06T02:31:00;5.80;99.90
18163;DHT22;9206;50.994;4.538;2023-04-06T02:33:45;5.70;99.90
18163;DHT22;9206;50.994;4.538;2023-04-06T02:36:33;5.70;99.90
18163;DHT22;9206;50.994;4.538;2023-04-06T02:39:26;5.70;99.90
18163;DHT22;9206;50.994;4.538;2023-04-06T02:42:14;5.70;99.90
18163;DHT22;9206;50.994;4.538;2023-04-06T02:45:15;5.60;99.90
18163;DHT22;9206;50.994;4.538;2023-04-06T02:51:58;5.60;99.90
18163;DHT22;9206;50.994;4.538;2023-04-06T03:02:02;5.60;99.90
18163;DHT22;9206;50.994;4.538;2023-04-06T03:08:47;5.50;99.90
18163;DHT22;9206;50.994;4.538;2023-04-06T03:11:35;5.40;99.90
18163;DHT22;9206;50.994;4.538;2023-04-06T03:14:24;5.40;99.90
18163;DHT22;9206;50.994;4.538;2023-04-06T03:17:18;5.40;99.90
18163;DHT22;9206;50.994;4.538;2023-04-06T03:20:09;5.30;99.90
18163;DHT22;9206;50.994;4.538;2023-04-06T03:22:57;5.30;99.90
18163;DHT22;9206;50.994;4.538;2023-04-06T03:26:23;5.30;99.90
18163;DHT22;9206;50.994;4.538;2023-04-06T03:32:44;5.20;99.90
18163;DHT22;9206;50.994;4.538;2023-04-06T03:35:35;5.20;99.90
18163;DHT22;9206;50.994;4.538;2023-04-06T03:42:15;5.30;99.90
18163;DHT22;9206;50.994;4.538;2023-04-06T03:47:41;5.30;99.90
18163;DHT22;9206;50.994;4.538;2023-04-06T03:50:28;5.30;99.90
18163;DHT22;9206;50.994;4.538;2023-04-06T03:53:23;5.20;99.90
18163;DHT22;9206;50.994;4.538;2023-04-06T03:56:13;5.10;99.90
18163;DHT22;9206;50.994;4.538;2023-04-06T04:08:06;5.10;99.90
18163;DHT22;9206;50.994;4.538;2023-04-06T04:24:06;5.00;99.90
18163;DHT22;9206;50.994;4.538;2023-04-06T04:27:07;5.00;99.90
18163;DHT22;9206;50.994;4.538;2023-04-06T04:36:42;4.90;99.90
18163;DHT22;9206;50.994;4.538;2023-04-06T04:42:26;5.10;99.90
18163;DHT22;9206;50.994;4.538;2023-04-06T04:54:20;5.00;99.90
18163;DHT22;9206;50.994;4.538;2023-04-06T05:00:51;5.10;99.90
18163;DHT22;9206;50.994;4.538;2023-04-06T05:16:25;5.30;99.90
18163;DHT22;9206;50.994;4.538;2023-04-06T05:20:46;5.30;99.90
18163;DHT22;9206;50.994;4.538;2023-04-06T05:22:55;5.30;99.90
18163;DHT22;9206;50.994;4.538;2023-04-06T05:25:57;5.30;99.90
18163;DHT22;9206;50.994;4.538;2023-04-06T05:28:44;5.30;99.90
18163;DHT22;9206;50.994;4.538;2023-04-06T05:31:42;5.30;99.90
18163;DHT22;9206;50.994;4.538;2023-04-06T05:34:48;5.30;99.90
18163;DHT22;9206;50.994;4.538;2023-04-06T05:38:09;5.30;99.90
18163;DHT22;9206;50.994;4.538;2023-04-06T05:41:00;5.40;99.90
18163;DHT22;9206;50.994;4.538;2023-04-06T05:47:29;5.40;99.90
18163;DHT22;9206;50.994;4.538;2023-04-06T05:50:22;5.50;99.90
18163;DHT22;9206;50.994;4.538;2023-04-06T05:53:34;5.60;99.90
18163;DHT22;9206;50.994;4.538;2023-04-06T05:56:21;5.60;99.90
18163;DHT22;9206;50.994;4.538;2023-04-06T06:12:03;6.30;99.90
18163;DHT22;9206;50.994;4.538;2023-04-06T06:20:26;6.70;99.90
18163;DHT22;9206;50.994;4.538;2023-04-06T06:23:19;6.80;99.90
18163;DHT22;9206;50.994;4.538;2023-04-06T06:33:11;7.10;99.90
18163;DHT22;9206;50.994;4.538;2023-04-06T06:36:13;7.30;99.90
18163;DHT22;9206;50.994;4.538;2023-04-06T06:41:36;7.40;99.90
18163;DHT22;9206;50.994;4.538;2023-04-06T06:44:45;7.40;99.90
18163;DHT22;9206;50.994;4.538;2023-04-06T06:47:39;7.50;99.90
18163;DHT22;9206;50.994;4.538;2023-04-06T06:50:28;7.60;99.90
18163;DHT22;9206;50.994;4.538;2023-04-06T06:53:51;7.60;99.90
18163;DHT22;9206;50.994;4.538;2023-04-06T06:56:48;7.70;99.90
18163;DHT22;9206;50.994;4.538;2023-04-06T06:59:36;7.70;99.90
18163;DHT22;9206;50.994;4.538;2023-04-06T07:02:24;7.80;99.90
18163;DHT22;9206;50.994;4.538;2023-04-06T07:15:09;7.80;99.90
18163;DHT22;9206;50.994;4.538;2023-04-06T07:21:07;7.70;99.90
18163;DHT22;9206;50.994;4.538;2023-04-06T07:21:44;7.70;99.90
18163;DHT22;9206;50.994;4.538;2023-04-06T07:36:02;7.70;99.90
18163;DHT22;9206;50.994;4.538;2023-04-06T07:38:50;7.80;99.90
18163;DHT22;9206;50.994;4.538;2023-04-06T07:41:51;7.80;99.90
18163;DHT22;9206;50.994;4.538;2023-04-06T07:44:55;8.00;99.90
18163;DHT22;9206;50.994;4.538;2023-04-06T07:48:07;8.10;99.90
18163;DHT22;9206;50.994;4.538;2023-04-06T07:51:22;8.20;99.90
18163;DHT22;9206;50.994;4.538;2023-04-06T07:54:14;8.30;99.90
18163;DHT22;9206;50.994;4.538;2023-04-06T07:58:34;8.40;99.90
18163;DHT22;9206;50.994;4.538;2023-04-06T08:01:27;8.40;99.90
18163;DHT22;9206;50.994;4.538;2023-04-06T08:04:24;8.30;99.90
18163;DHT22;9206;50.994;4.538;2023-04-06T08:07:19;8.40;99.90
18163;DHT22;9206;50.994;4.538;2023-04-06T08:10:12;8.40;99.90
18163;DHT22;9206;50.994;4.538;2023-04-06T08:13:06;8.30;99.90
18163;DHT22;9206;50.994;4.538;2023-04-06T08:15:57;8.50;99.90
18163;DHT22;9206;50.994;4.538;2023-04-06T08:18:47;8.50;99.90
18163;DHT22;9206;50.994;4.538;2023-04-06T08:21:37;8.50;99.90
18163;DHT22;9206;50.994;4.538;2023-04-06T08:24:28;8.60;99.90
18163;DHT22;9206;50.994;4.538;2023-04-06T08:45:33;8.50;99.90
18163;DHT22;9206;50.994;4.538;2023-04-06T08:48:35;8.60;99.90
18163;DHT22;9206;50.994;4.538;2023-04-06T08:51:28;8.60;99.90
18163;DHT22;9206;50.994;4.538;2023-04-06T08:54:16;8.60;99.90
18163;DHT22;9206;50.994;4.538;2023-04-06T08:57:06;8.60;99.90
18163;DHT22;9206;50.994;4.538;2023-04-06T08:59:55;8.60;99.90
18163;DHT22;9206;50.994;4.538;2023-04-06T09:02:53;8.40;99.90
18163;DHT22;9206;50.994;4.538;2023-04-06T09:05:43;8.40;99.90
18163;DHT22;9206;50.994;4.538;2023-04-06T09:08:33;8.40;99.90
18163;DHT22;9206;50.994;4.538;2023-04-06T09:11:21;8.40;99.90
18163;DHT22;9206;50.994;4.538;2023-04-06T09:14:08;8.50;99.90
18163;DHT22;9206;50.994;4.538;2023-04-06T09:16:56;8.50;99.90
18163;DHT22;9206;50.994;4.538;2023-04-06T09:19:48;8.50;99.90
18163;DHT22;9206;50.994;4.538;2023-04-06T09:22:37;8.60;99.90
18163;DHT22;9206;50.994;4.538;2023-04-06T09:25:26;8.70;99.90
18163;DHT22;9206;50.994;4.538;2023-04-06T09:28:15;8.60;99.90
18163;DHT22;9206;50.994;4.538;2023-04-06T09:31:03;8.60;99.90
18163;DHT22;9206;50.994;4.538;2023-04-06T09:33:57;8.60;99.90
18163;DHT22;9206;50.994;4.538;2023-04-06T09:36:46;8.60;99.90
18163;DHT22;9206;50.994;4.538;2023-04-06T09:39:34;8.60;99.90
18163;DHT22;9206;50.994;4.538;2023-04-06T09:42:24;8.50;99.90
18163;DHT22;9206;50.994;4.538;2023-04-06T09:45:12;8.50;99.90
18163;DHT22;9206;50.994;4.538;2023-04-06T09:48:04;8.50;99.90
18163;DHT22;9206;50.994;4.538;2023-04-06T09:50:56;8.60;99.90
18163;DHT22;9206;50.994;4.538;2023-04-06T09:53:52;8.60;99.90
18163;DHT22;9206;50.994;4.538;2023-04-06T09:56:51;8.60;99.90
18163;DHT22;9206;50.994;4.538;2023-04-06T09:59:52;8.60;99.90
18163;DHT22;9206;50.994;4.538;2023-04-06T10:02:48;8.60;99.90
18163;DHT22;9206;50.994;4.538;2023-04-06T10:05:42;8.50;99.90
18163;DHT22;9206;50.994;4.538;2023-04-06T10:08:33;8.50;99.90
18163;DHT22;9206;50.994;4.538;2023-04-06T10:11:23;8.60;99.90
18163;DHT22;9206;50.994;4.538;2023-04-06T10:14:18;8.70;99.90
18163;DHT22;9206;50.994;4.538;2023-04-06T10:17:43;8.70;99.90
18163;DHT22;9206;50.994;4.538;2023-04-06T10:20:41;8.70;99.90
18163;DHT22;9206;50.994;4.538;2023-04-06T10:23:45;8.70;99.90
18163;DHT22;9206;50.994;4.538;2023-04-06T10:26:43;8.60;99.90
18163;DHT22;9206;50.994;4.538;2023-04-06T10:29:44;8.80;99.90
18163;DHT22;9206;50.994;4.538;2023-04-06T10:32:36;8.80;99.90
18163;DHT22;9206;50.994;4.538;2023-04-06T10:35:36;8.80;99.90
18163;DHT22;9206;50.994;4.538;2023-04-06T10:38:33;8.80;99.90
18163;DHT22;9206;50.994;4.538;2023-04-06T10:41:25;8.70;99.90
18163;DHT22;9206;50.994;4.538;2023-04-06T10:44:24;8.60;99.90
18163;DHT22;9206;50.994;4.538;2023-04-06T10:47:18;8.70;99.90
18163;DHT22;9206;50.994;4.538;2023-04-06T10:50:12;8.80;99.90
18163;DHT22;9206;50.994;4.538;2023-04-06T10:53:03;9.00;99.90
18163;DHT22;9206;50.994;4.538;2023-04-06T10:55:56;9.00;99.90
18163;DHT22;9206;50.994;4.538;2023-04-06T10:58:51;9.10;99.90
18163;DHT22;9206;50.994;4.538;2023-04-06T11:01:44;9.20;99.90
18163;DHT22;9206;50.994;4.538;2023-04-06T11:04:42;9.40;99.90
18163;DHT22;9206;50.994;4.538;2023-04-06T11:07:33;9.30;99.90
18163;DHT22;9206;50.994;4.538;2023-04-06T11:10:22;9.30;99.90
18163;DHT22;9206;50.994;4.538;2023-04-06T11:13:13;9.20;99.90
18163;DHT22;9206;50.994;4.538;2023-04-06T11:16:01;9.30;99.90
18163;DHT22;9206;50.994;4.538;2023-04-06T11:18:52;9.20;99.90
18163;DHT22;9206;50.994;4.538;2023-04-06T11:21:41;9.30;99.90
18163;DHT22;9206;50.994;4.538;2023-04-06T11:24:33;9.20;99.90
18163;DHT22;9206;50.994;4.538;2023-04-06T11:27:20;9.20;99.90
18163;DHT22;9206;50.994;4.538;2023-04-06T11:30:15;9.10;99.90
18163;DHT22;9206;50.994;4.538;2023-04-06T11:33:02;9.00;99.90
18163;DHT22;9206;50.994;4.538;2023-04-06T11:35:52;9.00;99.90
18163;DHT22;9206;50.994;4.538;2023-04-06T11:38:47;9.10;99.90
18163;DHT22;9206;50.994;4.538;2023-04-06T11:41:36;9.20;99.90
18163;DHT22;9206;50.994;4.538;2023-04-06T11:44:32;9.20;99.90
18163;DHT22;9206;50.994;4.538;2023-04-06T11:47:30;8.90;99.90
18163;DHT22;9206;50.994;4.538;2023-04-06T11:50:23;8.90;99.90
18163;DHT22;9206;50.994;4.538;2023-04-06T11:53:33;9.00;99.90
18163;DHT22;9206;50.994;4.538;2023-04-06T11:56:39;8.90;99.90
18163;DHT22;9206;50.994;4.538;2023-04-06T11:59:29;8.90;99.90
18163;DHT22;9206;50.994;4.538;2023-04-06T12:02:18;8.90;99.90
18163;DHT22;9206;50.994;4.538;2023-04-06T12:05:13;9.00;99.90
18163;DHT22;9206;50.994;4.538;2023-04-06T12:08:03;9.20;99.90
18163;DHT22;9206;50.994;4.538;2023-04-06T12:10:56;9.40;99.90
18163;DHT22;9206;50.994;4.538;2023-04-06T12:13:54;9.40;99.90
18163;DHT22;9206;50.994;4.538;2023-04-06T12:16:44;9.40;99.90
18163;DHT22;9206;50.994;4.538;2023-04-06T12:19:32;9.30;99.90
18163;DHT22;9206;50.994;4.538;2023-04-06T12:22:20;9.20;99.90
18163;DHT22;9206;50.994;4.538;2023-04-06T12:25:14;9.30;99.90
18163;DHT22;9206;50.994;4.538;2023-04-06T12:28:04;9.30;99.90
18163;DHT22;9206;50.994;4.538;2023-04-06T12:30:54;9.30;99.90
18163;DHT22;9206;50.994;4.538;2023-04-06T12:33:46;9.30;99.90
18163;DHT22;9206;50.994;4.538;2023-04-06T12:36:37;9.30;99.90
18163;DHT22;9206;50.994;4.538;2023-04-06T12:39:28;9.30;99.90
18163;DHT22;9206;50.994;4.538;2023-04-06T12:42:16;9.30;99.90
18163;DHT22;9206;50.994;4.538;2023-04-06T12:45:15;9.30;99.90
18163;DHT22;9206;50.994;4.538;2023-04-06T12:48:13;9.40;99.90
18163;DHT22;9206;50.994;4.538;2023-04-06T12:51:03;9.50;99.90
18163;DHT22;9206;50.994;4.538;2023-04-06T12:53:54;9.40;99.90
18163;DHT22;9206;50.994;4.538;2023-04-06T12:56:49;9.40;99.90
18163;DHT22;9206;50.994;4.538;2023-04-06T12:59:37;9.40;99.90
18163;DHT22;9206;50.994;4.538;2023-04-06T13:02:41;9.40;99.90
18163;DHT22;9206;50.994;4.538;2023-04-06T13:05:32;9.40;99.90
18163;DHT22;9206;50.994;4.538;2023-04-06T13:08:26;9.30;99.90
18163;DHT22;9206;50.994;4.538;2023-04-06T13:11:15;9.20;99.90
18163;DHT22;9206;50.994;4.538;2023-04-06T13:14:14;9.10;99.90
18163;DHT22;9206;50.994;4.538;2023-04-06T13:17:03;9.00;99.90
18163;DHT22;9206;50.994;4.538;2023-04-06T13:19:52;9.00;99.90
18163;DHT22;9206;50.994;4.538;2023-04-06T13:22:40;8.90;99.90
18163;DHT22;9206;50.994;4.538;2023-04-06T13:25:37;8.90;99.90
18163;DHT22;9206;50.994;4.538;2023-04-06T13:28:36;8.90;99.90
18163;DHT22;9206;50.994;4.538;2023-04-06T13:31:30;8.90;99.90
18163;DHT22;9206;50.994;4.538;2023-04-06T13:34:24;8.90;99.90
18163;DHT22;9206;50.994;4.538;2023-04-06T13:37:15;8.90;99.90
18163;DHT22;9206;50.994;4.538;2023-04-06T13:40:03;8.90;99.90
18163;DHT22;9206;50.994;4.538;2023-04-06T13:42:57;9.00;99.90
18163;DHT22;9206;50.994;4.538;2023-04-06T13:48:00;9.00;99.90
18163;DHT22;9206;50.994;4.538;2023-04-06T13:49:25;9.00;99.90
18163;DHT22;9206;50.994;4.538;2023-04-06T13:52:15;9.10;99.90
18163;DHT22;9206;50.994;4.538;2023-04-06T13:55:03;9.10;99.90
18163;DHT22;9206;50.994;4.538;2023-04-06T13:57:50;9.10;99.90
18163;DHT22;9206;50.994;4.538;2023-04-06T14:00:38;9.10;99.90
18163;DHT22;9206;50.994;4.538;2023-04-06T14:03:25;9.00;99.90
18163;DHT22;9206;50.994;4.538;2023-04-06T14:06:13;9.00;99.90
18163;DHT22;9206;50.994;4.538;2023-04-06T14:09:02;9.00;99.90
18163;DHT22;9206;50.994;4.538;2023-04-06T14:11:56;9.10;99.90
18163;DHT22;9206;50.994;4.538;2023-04-06T14:14:43;9.10;99.90
18163;DHT22;9206;50.994;4.538;2023-04-06T14:17:32;9.10;99.90
18163;DHT22;9206;50.994;4.538;2023-04-06T14:20:20;9.10;99.90
18163;DHT22;9206;50.994;4.538;2023-04-06T14:23:07;9.20;99.90
18163;DHT22;9206;50.994;4.538;2023-04-06T14:26:03;9.30;99.90
18163;DHT22;9206;50.994;4.538;2023-04-06T14:28:55;9.30;99.90
18163;DHT22;9206;50.994;4.538;2023-04-06T14:31:42;9.40;99.90
18163;DHT22;9206;50.994;4.538;2023-04-06T14:34:37;9.40;99.90
18163;DHT22;9206;50.994;4.538;2023-04-06T14:37:24;9.30;99.90
18163;DHT22;9206;50.994;4.538;2023-04-06T14:40:12;9.30;99.90
18163;DHT22;9206;50.994;4.538;2023-04-06T14:43:08;9.20;99.90
18163;DHT22;9206;50.994;4.538;2023-04-06T14:46:01;9.20;99.90
18163;DHT22;9206;50.994;4.538;2023-04-06T14:48:53;9.20;99.90
18163;DHT22;9206;50.994;4.538;2023-04-06T14:51:41;9.10;99.90
18163;DHT22;9206;50.994;4.538;2023-04-06T14:54:31;9.10;99.90
18163;DHT22;9206;50.994;4.538;2023-04-06T14:57:18;9.10;99.90
18163;DHT22;9206;50.994;4.538;2023-04-06T15:00:11;9.10;99.90
18163;DHT22;9206;50.994;4.538;2023-04-06T15:02:59;9.20;99.90
18163;DHT22;9206;50.994;4.538;2023-04-06T15:05:50;9.20;99.90
18163;DHT22;9206;50.994;4.538;2023-04-06T15:08:37;9.30;99.90
18163;DHT22;9206;50.994;4.538;2023-04-06T15:11:25;9.30;99.90
18163;DHT22;9206;50.994;4.538;2023-04-06T15:14:15;9.40;99.90
18163;DHT22;9206;50.994;4.538;2023-04-06T15:17:09;9.50;99.90
18163;DHT22;9206;50.994;4.538;2023-04-06T15:19:57;9.60;99.90
18163;DHT22;9206;50.994;4.538;2023-04-06T15:22:47;9.70;99.90
18163;DHT22;9206;50.994;4.538;2023-04-06T15:25:38;9.80;99.90
18163;DHT22;9206;50.994;4.538;2023-04-06T15:28:40;10.00;99.90
18163;DHT22;9206;50.994;4.538;2023-04-06T15:31:30;10.10;99.90
18163;DHT22;9206;50.994;4.538;2023-04-06T15:34:21;10.20;99.90
18163;DHT22;9206;50.994;4.538;2023-04-06T15:37:10;10.10;99.90
18163;DHT22;9206;50.994;4.538;2023-04-06T15:40:05;10.10;99.90
18163;DHT22;9206;50.994;4.538;2023-04-06T15:42:52;10.10;99.90
18163;DHT22;9206;50.994;4.538;2023-04-06T15:45:40;10.10;99.90
18163;DHT22;9206;50.994;4.538;2023-04-06T15:48:30;10.00;99.90
18163;DHT22;9206;50.994;4.538;2023-04-06T15:51:34;10.10;99.90
18163;DHT22;9206;50.994;4.538;2023-04-06T15:54:30;10.20;99.90
18163;DHT22;9206;50.994;4.538;2023-04-06T15:57:24;10.30;99.90
18163;DHT22;9206;50.994;4.538;2023-04-06T16:00:14;10.40;99.90
18163;DHT22;9206;50.994;4.538;2023-04-06T16:03:07;10.50;99.90
18163;DHT22;9206;50.994;4.538;2023-04-06T16:05:58;10.60;99.90
18163;DHT22;9206;50.994;4.538;2023-04-06T16:08:53;10.60;99.90
18163;DHT22;9206;50.994;4.538;2023-04-06T16:11:41;10.70;99.90
18163;DHT22;9206;50.994;4.538;2023-04-06T16:14:28;10.70;99.90
18163;DHT22;9206;50.994;4.538;2023-04-06T16:17:19;10.80;99.90
18163;DHT22;9206;50.994;4.538;2023-04-06T16:20:07;10.80;99.90
18163;DHT22;9206;50.994;4.538;2023-04-06T16:23:01;10.80;99.90
18163;DHT22;9206;50.994;4.538;2023-04-06T16:25:56;10.80;99.90
18163;DHT22;9206;50.994;4.538;2023-04-06T16:28:46;10.70;99.90
18163;DHT22;9206;50.994;4.538;2023-04-06T16:31:35;10.60;99.90
18163;DHT22;9206;50.994;4.538;2023-04-06T16:34:24;10.50;99.90
18163;DHT22;9206;50.994;4.538;2023-04-06T16:37:12;10.50;99.90
18163;DHT22;9206;50.994;4.538;2023-04-06T16:39:59;10.40;99.90
18163;DHT22;9206;50.994;4.538;2023-04-06T16:42:49;10.40;99.90
18163;DHT22;9206;50.994;4.538;2023-04-06T16:46:11;10.30;99.90
18163;DHT22;9206;50.994;4.538;2023-04-06T16:49:15;10.20;99.90
18163;DHT22;9206;50.994;4.538;2023-04-06T16:52:04;10.20;99.90
18163;DHT22;9206;50.994;4.538;2023-04-06T16:54:51;10.10;99.90
18163;DHT22;9206;50.994;4.538;2023-04-06T17:01:22;10.10;99.90
18163;DHT22;9206;50.994;4.538;2023-04-06T17:04:10;10.00;99.90
18163;DHT22;9206;50.994;4.538;2023-04-06T17:07:00;10.00;99.90
18163;DHT22;9206;50.994;4.538;2023-04-06T17:09:50;10.00;99.90
18163;DHT22;9206;50.994;4.538;2023-04-06T17:12:40;10.00;99.90
18163;DHT22;9206;50.994;4.538;2023-04-06T17:15:28;9.90;99.90
18163;DHT22;9206;50.994;4.538;2023-04-06T17:18:24;9.90;99.90
18163;DHT22;9206;50.994;4.538;2023-04-06T17:21:11;9.90;99.90
18163;DHT22;9206;50.994;4.538;2023-04-06T17:23:59;9.90;99.90
18163;DHT22;9206;50.994;4.538;2023-04-06T17:26:46;9.90;99.90
18163;DHT22;9206;50.994;4.538;2023-04-06T17:29:36;9.80;99.90
18163;DHT22;9206;50.994;4.538;2023-04-06T17:32:29;9.80;99.90
18163;DHT22;9206;50.994;4.538;2023-04-06T17:35:19;9.80;99.90
18163;DHT22;9206;50.994;4.538;2023-04-06T17:38:06;9.80;99.90
18163;DHT22;9206;50.994;4.538;2023-04-06T17:40:54;9.80;99.90
18163;DHT22;9206;50.994;4.538;2023-04-06T17:43:45;9.80;99.90
18163;DHT22;9206;50.994;4.538;2023-04-06T17:46:37;9.80;99.90
18163;DHT22;9206;50.994;4.538;2023-04-06T17:49:27;9.80;99.90
18163;DHT22;9206;50.994;4.538;2023-04-06T17:52:20;9.80;99.90
18163;DHT22;9206;50.994;4.538;2023-04-06T17:55:08;9.80;99.90
18163;DHT22;9206;50.994;4.538;2023-04-06T17:57:57;9.80;99.90
18163;DHT22;9206;50.994;4.538;2023-04-06T18:00:50;9.80;99.90
18163;DHT22;9206;50.994;4.538;2023-04-06T18:03:40;9.90;99.90
18163;DHT22;9206;50.994;4.538;2023-04-06T18:06:39;9.90;99.90
18163;DHT22;9206;50.994;4.538;2023-04-06T18:09:31;9.80;99.90
18163;DHT22;9206;50.994;4.538;2023-04-06T18:12:20;9.80;99.90
18163;DHT22;9206;50.994;4.538;2023-04-06T18:15:07;9.80;99.90
18163;DHT22;9206;50.994;4.538;2023-04-06T18:17:55;9.90;99.90
18163;DHT22;9206;50.994;4.538;2023-04-06T18:20:42;9.90;99.90
18163;DHT22;9206;50.994;4.538;2023-04-06T18:27:02;10.00;99.90
18163;DHT22;9206;50.994;4.538;2023-04-06T18:29:50;9.90;99.90
18163;DHT22;9206;50.994;4.538;2023-04-06T18:32:39;9.90;99.90
18163;DHT22;9206;50.994;4.538;2023-04-06T18:35:31;10.00;99.90
18163;DHT22;9206;50.994;4.538;2023-04-06T18:38:25;9.90;99.90
18163;DHT22;9206;50.994;4.538;2023-04-06T18:41:23;9.90;99.90
18163;DHT22;9206;50.994;4.538;2023-04-06T18:47:58;9.80;99.90
18163;DHT22;9206;50.994;4.538;2023-04-06T18:50:51;9.80;99.90
18163;DHT22;9206;50.994;4.538;2023-04-06T18:53:39;9.80;99.90
18163;DHT22;9206;50.994;4.538;2023-04-06T18:56:33;9.80;99.90
18163;DHT22;9206;50.994;4.538;2023-04-06T18:59:24;9.80;99.90
18163;DHT22;9206;50.994;4.538;2023-04-06T19:02:18;9.80;99.90
18163;DHT22;9206;50.994;4.538;2023-04-06T19:05:09;9.70;99.90
18163;DHT22;9206;50.994;4.538;2023-04-06T19:07:59;9.70;99.90
18163;DHT22;9206;50.994;4.538;2023-04-06T19:10:47;9.70;99.90
18163;DHT22;9206;50.994;4.538;2023-04-06T19:13:35;9.70;99.90
18163;DHT22;9206;50.994;4.538;2023-04-06T19:16:25;9.70;99.90
18163;DHT22;9206;50.994;4.538;2023-04-06T19:19:18;9.70;99.90
18163;DHT22;9206;50.994;4.538;2023-04-06T19:26:03;9.60;99.90
18163;DHT22;9206;50.994;4.538;2023-04-06T19:29:03;9.60;99.90
18163;DHT22;9206;50.994;4.538;2023-04-06T19:34:31;9.60;99.90
18163;DHT22;9206;50.994;4.538;2023-04-06T19:37:21;9.60;99.90
18163;DHT22;9206;50.994;4.538;2023-04-06T19:40:11;9.60;99.90
18163;DHT22;9206;50.994;4.538;2023-04-06T19:43:03;9.50;99.90
18163;DHT22;9206;50.994;4.538;2023-04-06T19:45:52;9.50;99.90
18163;DHT22;9206;50.994;4.538;2023-04-06T19:48:43;9.50;99.90
18163;DHT22;9206;50.994;4.538;2023-04-06T19:51:33;9.50;99.90
18163;DHT22;9206;50.994;4.538;2023-04-06T19:54:24;9.50;99.90
18163;DHT22;9206;50.994;4.538;2023-04-06T19:57:17;9.50;99.90
18163;DHT22;9206;50.994;4.538;2023-04-06T20:00:09;9.50;99.90
18163;DHT22;9206;50.994;4.538;2023-04-06T20:03:03;9.50;99.90
18163;DHT22;9206;50.994;4.538;2023-04-06T20:05:51;9.50;99.90
18163;DHT22;9206;50.994;4.538;2023-04-06T20:08:44;9.50;99.90
18163;DHT22;9206;50.994;4.538;2023-04-06T20:11:32;9.50;99.90
18163;DHT22;9206;50.994;4.538;2023-04-06T20:14:26;9.50;99.90
18163;DHT22;9206;50.994;4.538;2023-04-06T20:17:22;9.50;99.90
18163;DHT22;9206;50.994;4.538;2023-04-06T20:20:11;9.50;99.90
18163;DHT22;9206;50.994;4.538;2023-04-06T20:22:59;9.50;99.90
18163;DHT22;9206;50.994;4.538;2023-04-06T20:25:47;9.50;99.90
18163;DHT22;9206;50.994;4.538;2023-04-06T20:28:41;9.40;99.90
18163;DHT22;9206;50.994;4.538;2023-04-06T20:31:29;9.40;99.90
18163;DHT22;9206;50.994;4.538;2023-04-06T20:34:18;9.40;99.90
18163;DHT22;9206;50.994;4.538;2023-04-06T20:40:45;9.30;99.90
18163;DHT22;9206;50.994;4.538;2023-04-06T20:43:35;9.30;99.90
18163;DHT22;9206;50.994;4.538;2023-04-06T20:46:23;9.20;99.90
18163;DHT22;9206;50.994;4.538;2023-04-06T20:49:18;9.20;99.90
18163;DHT22;9206;50.994;4.538;2023-04-06T20:52:14;9.20;99.90
18163;DHT22;9206;50.994;4.538;2023-04-06T20:55:05;9.20;99.90
18163;DHT22;9206;50.994;4.538;2023-04-06T20:57:58;9.20;99.90
18163;DHT22;9206;50.994;4.538;2023-04-06T21:00:46;9.20;99.90
18163;DHT22;9206;50.994;4.538;2023-04-06T21:03:35;9.20;99.90
18163;DHT22;9206;50.994;4.538;2023-04-06T21:06:30;9.30;99.90
18163;DHT22;9206;50.994;4.538;2023-04-06T21:09:21;9.30;99.90
18163;DHT22;9206;50.994;4.538;2023-04-06T21:12:15;9.30;99.90
18163;DHT22;9206;50.994;4.538;2023-04-06T21:15:05;9.30;99.90
18163;DHT22;9206;50.994;4.538;2023-04-06T21:17:55;9.30;99.90
18163;DHT22;9206;50.994;4.538;2023-04-06T21:20:43;9.30;99.90
18163;DHT22;9206;50.994;4.538;2023-04-06T21:23:40;9.20;99.90
18163;DHT22;9206;50.994;4.538;2023-04-06T21:26:30;9.20;99.90
18163;DHT22;9206;50.994;4.538;2023-04-06T21:29:18;9.20;99.90
18163;DHT22;9206;50.994;4.538;2023-04-06T21:32:08;9.20;99.90
18163;DHT22;9206;50.994;4.538;2023-04-06T21:35:00;9.20;99.90
18163;DHT22;9206;50.994;4.538;2023-04-06T21:37:57;9.20;99.90
18163;DHT22;9206;50.994;4.538;2023-04-06T21:40:54;9.20;99.90
18163;DHT22;9206;50.994;4.538;2023-04-06T21:43:44;9.20;99.90
18163;DHT22;9206;50.994;4.538;2023-04-06T21:46:32;9.20;99.90
18163;DHT22;9206;50.994;4.538;2023-04-06T21:49:20;9.20;99.90
18163;DHT22;9206;50.994;4.538;2023-04-06T21:52:07;9.20;99.90
18163;DHT22;9206;50.994;4.538;2023-04-06T21:55:02;9.10;99.90
18163;DHT22;9206;50.994;4.538;2023-04-06T21:57:56;9.10;99.90
18163;DHT22;9206;50.994;4.538;2023-04-06T22:00:44;9.10;99.90
18163;DHT22;9206;50.994;4.538;2023-04-06T22:03:43;9.10;99.90
18163;DHT22;9206;50.994;4.538;2023-04-06T22:06:35;9.10;99.90
18163;DHT22;9206;50.994;4.538;2023-04-06T22:09:24;9.10;99.90
18163;DHT22;9206;50.994;4.538;2023-04-06T22:12:17;9.10;99.90
18163;DHT22;9206;50.994;4.538;2023-04-06T22:15:12;9.10;99.90
18163;DHT22;9206;50.994;4.538;2023-04-06T22:18:00;9.00;99.90